Messages - map view · info · telemetry · weather · raw · status · beacons · messages · bulletins · browse · moving · my account
Callsign:
Show:

Loading message packets...

APRS messages are stored for 14 days. It is possible to search using wildcards (*?) after a prefix.

2019-04-25 22:38:12 EDT: KJ4ERJ-E2>KJ4ERJ-AP: Bad temperature CRCs after 1 good (135~=38) on pin 6 index 1 from:9(148 0 74 70 127 254 12 16 38)
2019-04-25 22:38:15 EDT: KJ4ERJ-E2>KJ4ERJ-AP: CRC Restored after 2 bad (2==2) on pin 6 index 1 from:9(142 1 75 70 127 255 2 16 2)
2019-04-25 22:38:24 EDT: LU1HVK-1>APRS: lu1hvk@qsl.net Saludos de Leones - Cordoba AR...
2019-04-25 22:38:26 EDT: WP4PXF-7>WLNK-1: tes'
2019-04-25 22:38:29 EDT: N0KQX-2>EMAIL: cheifsfan2@cox.net test msg
2019-04-25 22:38:56 EDT: ILNTOR>NWS-WARN: 260245z,TORNADO,OHC037
2019-04-25 22:38:56 EDT: ABQSVR>NWS-WARN: 260300z,SVR_STORM,NMC019
2019-04-25 22:38:56 EDT: ILNTOR>NWS_WARN: 260245z,TORNADO,OHC037
2019-04-25 22:38:56 EDT: ABQSVR>NWS_WARN: 260300z,SVR_STORM,NMC019
2019-04-25 22:38:58 EDT: KJ4ERJ-E2>KJ4ERJ-AP: Bad temperature CRCs after 25 good (49~=114) on pin 6 index 1 from:9(38 1 75 70 127 255 9 16 114)
2019-04-25 22:39:04 EDT: KJ4ERJ-E2>KJ4ERJ-AP: CRC Restored after 5 bad (75==75) on pin 6 index 1 from:9(33 1 75 70 127 255 15 16 75)
2019-04-25 22:39:10 EDT: KJ4ERJ-E2>KJ4ERJ-AP: Bad temperature CRCs after 3 good (198~=232) on pin 6 index 1 from:9(28 1 67 70 126 255 4 16 232)
2019-04-25 22:39:16 EDT: KJ4ERJ-E2>KJ4ERJ-AP: CRC Restored after 4 bad (176==176) on pin 6 index 1 from:9(24 1 75 70 127 255 8 16 176)
2019-04-25 22:39:17 EDT: WLNK-1>WP4PXF-7: Login [397]:
2019-04-25 22:39:18 EDT: KJ4ERJ-E2>KJ4ERJ-AP: Bad temperature CRCs after 1 good (146~=152) on pin 6 index 1 from:9(5 0 74 70 127 255 8 16 152)
2019-04-25 22:39:19 EDT: KJ4ERJ-E2>KJ4ERJ-AP: CRC Restored after 2 bad (160==160) on pin 6 index 1 from:9(19 1 75 70 127 255 13 16 160)
2019-04-25 22:39:22 EDT: KJ4ERJ-E2>KJ4ERJ-AP: Bad temperature CRCs after 1 good (29~=183) on pin 6 index 1 from:9(16 1 75 6 127 255 15 16 183)
2019-04-25 22:39:24 EDT: KJ4ERJ-E2>KJ4ERJ-AP: CRC Restored after 2 bad (0==0) on pin 6 index 1 from:9(16 1 75 70 127 255 16 16 0)
2019-04-25 22:39:31 EDT: WP4PXF-7>WLNK-1: tes'
2019-04-25 22:39:32 EDT: KJ4ERJ-E2>KJ4ERJ-AP: Bad temperature CRCs after 2 good (70~=188) on pin 6 index 1 from:9(12 1 11 70 126 255 4 16 188)
2019-04-25 22:39:33 EDT: N0KQX-2>EMAIL: cheifsfan2@cox.net test msg
2019-04-25 22:39:33 EDT: KJ4ERJ-E2>KJ4ERJ-AP: CRC Restored after 2 bad (190==190) on pin 6 index 1 from:9(10 1 75 70 127 255 6 16 190)
2019-04-25 22:39:40 EDT: KJ4ERJ-E2>KJ4ERJ-AP: Bad temperature CRCs after 5 good (205~=204) on pin 6 index 1 from:9(5 1 75 70 127 255 11 16 204)
2019-04-25 22:39:41 EDT: KJ4ERJ-E2>KJ4ERJ-AP: CRC Restored after 2 bad (205==205) on pin 6 index 1 from:9(5 1 75 70 127 255 11 16 205)
2019-04-25 22:39:57 EDT: AC0AE-9>SMSGTE: @6203329264 test from radio
2019-04-25 22:40:09 EDT: VK2GJ-2>VK2GJ-7: Directs=VK2AMW-1 VK2BWI-3
2019-04-25 22:40:11 EDT: KJ4ERJ-E2>KJ4ERJ-AP: Bad temperature CRCs after 20 good (182~=192) on pin 6 index 1 from:9(247 0 75 70 127 255 1 16 192)
2019-04-25 22:40:11 EDT: N7QME-2>N7QME: temps 66.8 66.6 72.2 58.0 54.5 55.6 63.7 54.8
2019-04-25 22:40:13 EDT: KJ4ERJ-E2>KJ4ERJ-AP: CRC Restored after 2 bad (192==192) on pin 6 index 1 from:9(247 0 75 70 127 255 9 16 192)
2019-04-25 22:40:16 EDT: VE4GLS>VE4AOD: yep can do voice..
2019-04-25 22:40:17 EDT: KJ4ERJ-E2>KJ4ERJ-AP: Bad temperature CRCs after 2 good (125~=214) on pin 6 index 1 from:9(246 0 75 70 127 254 10 16 214)
2019-04-25 22:40:19 EDT: KJ4ERJ-E2>KJ4ERJ-AP: CRC Restored after 2 bad (215==215) on pin 6 index 1 from:9(245 0 75 70 127 255 11 16 215)
2019-04-25 22:40:22 EDT: KJ4ERJ-E2>KJ4ERJ-AP: Bad temperature CRCs after 1 good (118~=215) on pin 6 index 1 from:9(245 0 67 70 127 255 11 16 215)
2019-04-25 22:40:25 EDT: DB0TS-10>DB0TS-9: T#001,000,000,000,000,000,00000000,Test
2019-04-25 22:40:26 EDT: KJ4ERJ-E2>KJ4ERJ-AP: CRC Restored after 4 bad (238==238) on pin 6 index 1 from:9(243 0 75 70 127 255 13 16 238)
2019-04-25 22:40:29 EDT: KJ4ERJ-E2>KJ4ERJ-AP: Bad temperature CRCs after 1 good (248~=216) on pin 6 index 1 from:9(242 0 75 70 127 255 14 16 216)
2019-04-25 22:40:37 EDT: N0KQX-2>EMAIL: cheifsfan2@cox.net test msg
2019-04-25 22:40:38 EDT: WP4PXF-7>WLNK-1: tes'
2019-04-25 22:40:42 EDT: KJ4ERJ-E2>KJ4ERJ-AP: CRC Restored after 8 bad (200==200) on pin 6 index 1 from:9(239 0 75 70 127 255 1 16 200)
2019-04-25 22:40:54 EDT: KJ4ERJ-E2>KJ4ERJ-AP: Bad temperature CRCs after 9 good (34~=230) on pin 6 index 1 from:9(235 0 75 70 127 255 4 16 230)
2019-04-25 22:40:57 EDT: KJ4ERJ-E2>KJ4ERJ-AP: CRC Restored after 3 bad (240==240) on pin 6 index 1 from:9(234 0 75 70 127 255 6 16 240)
2019-04-25 22:41:26 EDT: KJ4ERJ-E2>KJ4ERJ-AP: Bad temperature CRCs after 15 good (180~=131) on pin 6 index 1 from:9(229 0 74 70 127 255 11 16 131)
2019-04-25 22:41:27 EDT: KJ4ERJ-E2>KJ4ERJ-AP: CRC Restored after 2 bad (131==131) on pin 6 index 1 from:9(229 0 75 70 127 255 11 16 131)
2019-04-25 22:41:41 EDT: N0KQX-2>EMAIL: cheifsfan2@cox.net test msg
2019-04-25 22:41:41 EDT: MTHOOD>N7QME: hum 51 14 60
2019-04-25 22:41:52 EDT: AI6KG-7>W9KKN-9: 73
2019-04-25 22:42:15 EDT: PU5KOD-7>ISS: sat
2019-04-25 22:42:16 EDT: ISS>PU5KOD-7: AOS 22m21s S SE^6 E 8m
2019-04-25 22:42:43 EDT: SMSGTE>AC0AE-9: @6203329264 test from cell phone
2019-04-25 22:42:54 EDT: KN4FMO-10>KP4RGD: hola
< previous
FAQ · Blog · Discussion group · Linking to aprs.fi · AIS sites · Service status · Database statistics · Advertising on aprs.fi · Technical details · API · Change log · Planned changes · Credits and thanks · Terms Of Service · iPhone/iPad APRS